This is the latest recevied weather packets stored in our database for station/object EPGD. If no packets are shown the sender has not sent any weather packets the latest 10 day(s).
| Time | Temp. | Humidity | Pressure | Rain* | Wind** | Luminosity | Snow |
|---|---|---|---|---|---|---|---|
| 1777932304 | 10° C | 87% | 1012 hPa | - | - | - | - |
| 1777930503 | 10.56° C | 87% | 1012 hPa | - | - | - | - |
| 1777928704 | 10.56° C | 87% | 1012 hPa | - | - | - | - |
| 1777926904 | 11.67° C | 81% | 1012 hPa | - | - | - | - |
| 1777925104 | 11.67° C | 76% | 1012 hPa | - | - | - | - |
| 1777923304 | 12.78° C | 71% | 1012 hPa | - | - | - | - |
| 1777921503 | 13.89° C | 67% | 1012 hPa | - | - | - | - |
| 1777919703 | 15° C | 62% | 1011 hPa | - | - | - | - |
| 1777917904 | 15.56° C | 63% | 1011 hPa | - | - | - | - |
| 1777916104 | 15.56° C | 67% | 1011 hPa | - | - | - | - |
| 1777914304 | 17.78° C | 59% | 1011 hPa | - | - | - | - |
| 1777912503 | 17.78° C | 59% | 1011 hPa | - | - | - | - |
| 1777910704 | 18.89° C | 55% | 1010 hPa | - | - | - | - |
| 1777908904 | 20° C | 56% | 1010 hPa | - | - | - | - |
| 1777907104 | 20° C | 52% | 1010 hPa | - | - | - | - |
| 1777905304 | 20° C | 52% | 1010 hPa | - | - | - | - |
| 1777903504 | 20.56° C | 52% | 1010 hPa | - | - | - | - |
| 1777901704 | 20.56° C | 52% | 1010 hPa | - | - | - | - |
| 1777899904 | 21.67° C | 53% | 1010 hPa | - | - | - | - |
| 1777898103 | 21.67° C | 49% | 1010 hPa | - | - | - | - |
| 1777896304 | 20.56° C | 52% | 1010 hPa | - | - | - | - |
| 1777894504 | 21.67° C | 46% | 1009 hPa | - | - | - | - |
| 1777892704 | 21.67° C | 46% | 1010 hPa | - | - | - | - |
| 1777890904 | 20.56° C | 56% | 1010 hPa | - | - | - | - |
| 1777889104 | 21.67° C | 43% | 1010 hPa | - | - | - | - |
* Rain since midnight (hover to see other rain measurements)
** Current wind speed in m/s (hover to see current wind gust speed)